createdAt,value
2022-07-28T00:00:08.414Z,9.711692
2022-07-28T00:01:06.654Z,9.711696
2022-07-28T00:02:06.704Z,9.711699
2022-07-28T00:03:06.682Z,9.711699
2022-07-28T00:04:06.626Z,9.711671
2022-07-28T00:05:06.619Z,9.711719
2022-07-28T00:06:06.615Z,9.711723
2022-07-28T00:07:06.614Z,9.711762
2022-07-28T00:08:06.599Z,9.711823
2022-07-28T00:09:06.626Z,9.711822
2022-07-28T00:10:06.582Z,9.711841
2022-07-28T00:11:06.578Z,9.711841
2022-07-28T00:12:06.573Z,9.711821
2022-07-28T00:13:06.961Z,9.711705
2022-07-28T00:14:06.556Z,9.711776
2022-07-28T00:15:06.542Z,9.711805
2022-07-28T00:16:06.608Z,9.711827
2022-07-28T00:17:06.524Z,9.711769
2022-07-28T00:18:06.526Z,9.711938
2022-07-28T00:19:06.509Z,9.711905
2022-07-28T00:20:06.503Z,9.711840
2022-07-28T00:21:06.497Z,9.711921
2022-07-28T00:22:06.482Z,9.711976
2022-07-28T00:23:07.482Z,9.711958
2022-07-28T00:24:06.489Z,9.711797
2022-07-28T00:25:06.477Z,9.711858
2022-07-28T00:26:06.458Z,9.711967
2022-07-28T00:27:06.453Z,9.711769
2022-07-28T00:28:07.214Z,9.711799
2022-07-28T00:29:06.436Z,9.711720
2022-07-28T00:30:06.429Z,9.711648
2022-07-28T00:31:09.784Z,9.711630
2022-07-28T00:41:07.883Z,9.711061
2022-07-28T00:42:07.883Z,9.710818
2022-07-28T00:43:07.874Z,9.710486
2022-07-28T00:44:07.869Z,9.710509
2022-07-28T00:45:07.855Z,9.710558
2022-07-28T00:46:07.910Z,9.710242
2022-07-28T00:47:07.847Z,9.709602
2022-07-28T00:48:07.846Z,9.711128
2022-07-28T00:49:07.850Z,9.710559
2022-07-28T00:50:07.813Z,9.710214
2022-07-28T00:51:07.820Z,9.710319
2022-07-28T00:52:07.807Z,9.711451
2022-07-28T00:53:07.837Z,9.711770
2022-07-28T00:54:07.800Z,9.711671
2022-07-28T00:55:07.776Z,9.711640
2022-07-28T00:56:07.772Z,9.711789
2022-07-28T00:57:07.766Z,9.711685
2022-07-28T00:58:07.757Z,9.711556
2022-07-28T00:59:07.739Z,9.711461
2022-07-28T01:00:07.731Z,9.711503
2022-07-28T01:01:07.740Z,9.711630
2022-07-28T01:02:07.887Z,9.711598
2022-07-28T01:03:07.797Z,9.711528
2022-07-28T01:04:07.721Z,9.711514
2022-07-28T01:05:07.706Z,9.711587
2022-07-28T01:06:07.709Z,9.711617
2022-07-28T01:07:07.698Z,9.711613
2022-07-28T01:08:07.677Z,9.711505
2022-07-28T01:09:07.673Z,9.711596
2022-07-28T01:10:07.656Z,9.711546
2022-07-28T01:11:07.662Z,9.711495
2022-07-28T01:12:07.646Z,9.711432
2022-07-28T01:13:07.653Z,9.711137
2022-07-28T01:14:07.620Z,9.711367
2022-07-28T01:15:08.630Z,9.711411
2022-07-28T01:16:07.677Z,9.711749
2022-07-28T01:17:07.617Z,9.711682
2022-07-28T01:18:07.609Z,9.711588
2022-07-28T01:19:08.231Z,9.711710
2022-07-28T01:20:07.590Z,9.711615
2022-07-28T01:21:07.575Z,9.711655
2022-07-28T01:22:07.561Z,9.711587
2022-07-28T01:23:07.549Z,9.711532
2022-07-28T01:24:07.549Z,9.711658
2022-07-28T01:25:07.555Z,9.711625
2022-07-28T01:26:07.523Z,9.711677
2022-07-28T01:27:07.510Z,9.711682
2022-07-28T01:28:08.516Z,9.711748
2022-07-28T01:29:07.501Z,9.711588
2022-07-28T01:30:07.510Z,9.711576
2022-07-28T01:31:07.568Z,9.711589
2022-07-28T01:32:07.479Z,9.711665
2022-07-28T01:33:07.469Z,9.711662
2022-07-28T01:34:07.469Z,9.711696
2022-07-28T01:35:07.476Z,9.711568
2022-07-28T01:36:07.455Z,9.711598
2022-07-28T01:37:07.434Z,9.711491
2022-07-28T01:38:07.432Z,9.711663
2022-07-28T01:39:07.435Z,9.711598
2022-07-28T01:40:07.414Z,9.711737
2022-07-28T01:41:07.413Z,9.711659
2022-07-28T01:42:07.405Z,9.711693
2022-07-28T01:43:07.394Z,9.711766
2022-07-28T01:44:07.397Z,9.711744
2022-07-28T01:45:07.393Z,9.712013
2022-07-28T01:46:07.419Z,9.711703
2022-07-28T01:47:07.384Z,9.711783
2022-07-28T01:48:07.357Z,9.711722
2022-07-28T01:49:07.380Z,9.711782
2022-07-28T01:50:07.341Z,9.711707
2022-07-28T01:51:07.348Z,9.711767
2022-07-28T01:52:07.320Z,9.711865
2022-07-28T01:53:07.311Z,9.712079
2022-07-28T01:54:07.318Z,9.711829
2022-07-28T01:55:07.294Z,9.711719
2022-07-28T01:56:07.289Z,9.711932
2022-07-28T01:57:07.277Z,9.711932
2022-07-28T01:58:07.283Z,9.711775
2022-07-28T01:59:07.271Z,9.711688
2022-07-28T02:00:07.257Z,9.711851
2022-07-28T02:01:07.337Z,9.711855
2022-07-28T02:02:07.269Z,9.712136
2022-07-28T02:03:07.235Z,9.711971
2022-07-28T02:04:07.235Z,9.711898
2022-07-28T02:05:07.307Z,9.711783
2022-07-28T02:06:07.813Z,9.711776
2022-07-28T02:07:07.198Z,9.711995
2022-07-28T02:08:07.191Z,9.712111
2022-07-28T02:09:07.185Z,9.711964
2022-07-28T02:10:07.179Z,9.712045
2022-07-28T02:11:09.785Z,9.711955
2022-07-28T02:12:07.165Z,9.712048
2022-07-28T02:13:07.147Z,9.711776
2022-07-28T02:14:07.146Z,9.711685
2022-07-28T02:15:07.136Z,9.711710
2022-07-28T02:16:07.208Z,9.711766
2022-07-28T02:17:07.125Z,9.711719
2022-07-28T02:18:07.114Z,9.711860
2022-07-28T02:19:07.107Z,9.711864
2022-07-28T02:20:07.094Z,9.711648
2022-07-28T02:21:07.086Z,9.711586
2022-07-28T02:22:07.075Z,9.711592
2022-07-28T02:23:07.077Z,9.711799
2022-07-28T02:24:07.063Z,9.711926
2022-07-28T02:25:07.054Z,9.711736
2022-07-28T02:26:07.056Z,9.711492
2022-07-28T02:27:07.050Z,9.711181
2022-07-28T02:28:07.025Z,9.709860
2022-07-28T02:29:07.025Z,9.707296
2022-07-28T02:30:07.022Z,9.705408
2022-07-28T02:31:07.044Z,9.703626
2022-07-28T02:32:27.263Z,9.702453
2022-07-28T02:33:07.981Z,9.702789
2022-07-28T02:34:07.164Z,9.704296
2022-07-28T02:35:06.987Z,9.707303
2022-07-28T02:36:06.963Z,9.709900
2022-07-28T02:37:07.821Z,9.712001
2022-07-28T02:38:06.947Z,9.713085
2022-07-28T02:39:06.941Z,9.713377
2022-07-28T02:40:06.941Z,9.712419
2022-07-28T02:41:06.931Z,9.712137
2022-07-28T02:42:06.929Z,9.711823
2022-07-28T02:43:06.929Z,9.711882
2022-07-28T02:44:06.900Z,9.711857
2022-07-28T02:45:06.894Z,9.711793
2022-07-28T02:46:06.925Z,9.711771
2022-07-28T02:47:06.878Z,9.711744
2022-07-28T02:48:06.873Z,9.711710
2022-07-28T02:49:07.007Z,9.711726
2022-07-28T02:50:07.849Z,9.711719
2022-07-28T02:51:06.844Z,9.711564
2022-07-28T02:52:06.836Z,9.711794
2022-07-28T02:53:14.904Z,9.711658
2022-07-28T02:54:07.817Z,9.711721
2022-07-28T02:55:06.817Z,9.711746
2022-07-28T02:56:06.808Z,9.711707
2022-07-28T02:57:06.791Z,9.711733
2022-07-28T02:58:06.790Z,9.711742
2022-07-28T02:59:06.772Z,9.711761
2022-07-28T03:00:06.773Z,9.711732
2022-07-28T03:01:06.821Z,9.711647
2022-07-28T03:02:06.762Z,9.711644
2022-07-28T03:03:06.745Z,9.711692
2022-07-28T03:04:06.736Z,9.711741
2022-07-28T03:05:07.464Z,9.711709
2022-07-28T03:06:06.725Z,9.711712
2022-07-28T03:07:06.723Z,9.711706
2022-07-28T03:08:06.699Z,9.711702
2022-07-28T03:09:06.886Z,9.711786
2022-07-28T03:10:06.684Z,9.711799
2022-07-28T03:11:06.674Z,9.711745
2022-07-28T03:12:06.683Z,9.711711
2022-07-28T03:13:06.660Z,9.711676
2022-07-28T03:14:06.666Z,9.711572
2022-07-28T03:15:06.648Z,9.711701
2022-07-28T03:16:06.634Z,9.711720
2022-07-28T03:17:06.709Z,9.711681
2022-07-28T03:18:06.620Z,9.711811
2022-07-28T03:19:06.617Z,9.711785
2022-07-28T03:20:06.606Z,9.711616
2022-07-28T03:21:06.602Z,9.711632
2022-07-28T03:22:06.586Z,9.711640
2022-07-28T03:23:06.574Z,9.711654
2022-07-28T03:24:06.574Z,9.711684
2022-07-28T03:25:06.569Z,9.711583
2022-07-28T03:26:06.554Z,9.711702
2022-07-28T03:27:06.549Z,9.711701
2022-07-28T03:28:06.546Z,9.711680
2022-07-28T03:29:06.528Z,9.711687
2022-07-28T03:30:06.544Z,9.711759
2022-07-28T03:31:06.607Z,9.711746
2022-07-28T03:32:06.513Z,9.711698
2022-07-28T03:33:06.494Z,9.711661
2022-07-28T03:34:06.487Z,9.711794
2022-07-28T03:35:06.494Z,9.711758
2022-07-28T03:36:06.471Z,9.711745
2022-07-28T03:37:06.461Z,9.711725
2022-07-28T03:38:06.451Z,9.711464
2022-07-28T03:39:06.445Z,9.711260
2022-07-28T03:40:06.448Z,9.711285
2022-07-28T03:41:06.438Z,9.711645
2022-07-28T03:42:06.423Z,9.711612
2022-07-28T03:43:06.413Z,9.712367
2022-07-28T03:44:06.402Z,9.712507
2022-07-28T03:45:06.417Z,9.712765
2022-07-28T03:46:09.853Z,9.712951
2022-07-28T03:47:08.372Z,9.713335
2022-07-28T03:48:06.366Z,9.713505
2022-07-28T03:49:06.443Z,9.713371
2022-07-28T03:50:06.395Z,9.712824
2022-07-28T03:51:06.348Z,9.712282
2022-07-28T03:52:06.345Z,9.711894
2022-07-28T03:53:06.326Z,9.711736
2022-07-28T03:54:06.336Z,9.711740
2022-07-28T03:55:06.308Z,9.711686
2022-07-28T03:56:06.311Z,9.711546
2022-07-28T03:57:06.295Z,9.711508
2022-07-28T03:58:06.298Z,9.711543
2022-07-28T03:59:06.295Z,9.711874
2022-07-28T04:00:09.685Z,9.712084
2022-07-28T04:01:07.304Z,9.712047
2022-07-28T04:02:06.297Z,9.712085
2022-07-28T04:03:35.271Z,9.712405
2022-07-28T04:04:08.230Z,9.712075
2022-07-28T04:05:06.231Z,9.712051
2022-07-28T04:06:06.242Z,9.711744
2022-07-28T04:07:06.210Z,9.711754
2022-07-28T04:08:06.200Z,9.711697
2022-07-28T04:09:06.189Z,9.711762
2022-07-28T04:10:06.193Z,9.711732
2022-07-28T04:11:06.182Z,9.711546
2022-07-28T04:12:06.168Z,9.711688
2022-07-28T04:13:06.161Z,9.711805
2022-07-28T04:14:06.157Z,9.711778
2022-07-28T04:15:06.143Z,9.711843
2022-07-28T04:16:06.148Z,9.711538
2022-07-28T04:17:06.178Z,9.711374
2022-07-28T04:18:06.119Z,9.711300
2022-07-28T04:19:06.762Z,9.711617
2022-07-28T04:20:06.108Z,9.711637
2022-07-28T04:21:06.102Z,9.711780
2022-07-28T04:22:06.119Z,9.711755
2022-07-28T04:23:06.076Z,9.711846
2022-07-28T04:24:06.071Z,9.711527
2022-07-28T04:25:06.058Z,9.711493
2022-07-28T04:26:06.057Z,9.711500
2022-07-28T04:27:06.059Z,9.711462
2022-07-28T04:28:06.046Z,9.711450
2022-07-28T04:29:06.048Z,9.711485
2022-07-28T04:30:06.036Z,9.711455
2022-07-28T04:31:06.048Z,9.711482
2022-07-28T04:32:06.029Z,9.711442
2022-07-28T04:33:06.011Z,9.711407
2022-07-28T04:34:06.000Z,9.711422
2022-07-28T04:35:05.996Z,9.711614
2022-07-28T04:36:05.985Z,9.711662
2022-07-28T04:37:05.969Z,9.711645
2022-07-28T04:38:05.996Z,9.711632
2022-07-28T04:39:06.953Z,9.711634
2022-07-28T04:40:05.942Z,9.711645
2022-07-28T04:41:05.931Z,9.711715
2022-07-28T04:42:05.943Z,9.711679
2022-07-28T04:43:05.927Z,9.711675
2022-07-28T04:44:05.907Z,9.711686
2022-07-28T04:45:05.907Z,9.711690
2022-07-28T04:46:05.963Z,9.711655
2022-07-28T04:47:06.505Z,9.711696
2022-07-28T04:48:06.899Z,9.711664
2022-07-28T04:49:05.912Z,9.711680
2022-07-28T04:50:05.879Z,9.711652
2022-07-28T04:51:05.861Z,9.711685
2022-07-28T04:52:05.857Z,9.711669
2022-07-28T04:53:05.841Z,9.711699
2022-07-28T04:54:05.852Z,9.711667
2022-07-28T04:55:05.859Z,9.711668
2022-07-28T04:56:05.813Z,9.711662
2022-07-28T04:57:07.584Z,9.711642
2022-07-28T04:58:05.800Z,9.711640
2022-07-28T04:59:05.801Z,9.711630
2022-07-28T05:00:05.788Z,9.711671
2022-07-28T05:01:06.458Z,9.711665
2022-07-28T05:02:05.765Z,9.711654
2022-07-28T05:03:05.757Z,9.711661
2022-07-28T05:04:05.848Z,9.711650
2022-07-28T05:05:05.824Z,9.711679
2022-07-28T05:06:05.735Z,9.711684
2022-07-28T05:07:07.821Z,9.711650
2022-07-28T05:08:06.734Z,9.711630
2022-07-28T05:09:05.716Z,9.711615
2022-07-28T05:10:05.720Z,9.711634
2022-07-28T05:11:05.713Z,9.711583
2022-07-28T05:12:05.705Z,9.711619
2022-07-28T05:13:05.721Z,9.711550
2022-07-28T05:14:05.679Z,9.711547
2022-07-28T05:15:05.674Z,9.711553
2022-07-28T05:16:05.699Z,9.711602
2022-07-28T05:17:05.654Z,9.711549
2022-07-28T05:18:05.653Z,9.711566
2022-07-28T05:19:05.634Z,9.711621
2022-07-28T05:20:05.635Z,9.711613
2022-07-28T05:21:05.627Z,9.711477
2022-07-28T05:22:05.614Z,9.711567
2022-07-28T05:23:05.606Z,9.711565
2022-07-28T05:24:05.597Z,9.711609
2022-07-28T05:25:05.660Z,9.711560
2022-07-28T05:26:05.590Z,9.711582
2022-07-28T05:27:05.569Z,9.711520
2022-07-28T05:28:05.565Z,9.711538
2022-07-28T05:29:05.572Z,9.711534
2022-07-28T05:30:05.549Z,9.711615
2022-07-28T05:31:05.555Z,9.711540
2022-07-28T05:32:16.100Z,9.711448
2022-07-28T05:33:07.530Z,9.711546
2022-07-28T05:34:05.519Z,9.711530
2022-07-28T05:35:05.509Z,9.711460
2022-07-28T05:36:05.550Z,9.711515
2022-07-28T05:37:05.502Z,9.711554
2022-07-28T05:38:10.460Z,9.711645
2022-07-28T05:39:07.474Z,9.711585
2022-07-28T05:40:05.488Z,9.711471
2022-07-28T05:41:05.464Z,9.711428
2022-07-28T05:42:05.462Z,9.711415
2022-07-28T05:43:05.444Z,9.711478
2022-07-28T05:44:05.438Z,9.711555
2022-07-28T05:45:05.429Z,9.711532
2022-07-28T05:46:06.487Z,9.711444
2022-07-28T05:47:05.429Z,9.711516
2022-07-28T05:48:05.406Z,9.711573
2022-07-28T05:49:05.499Z,9.711591
2022-07-28T05:50:05.391Z,9.711537
2022-07-28T05:51:05.393Z,9.711561
2022-07-28T05:52:05.398Z,9.711581
2022-07-28T05:53:05.398Z,9.711598
2022-07-28T05:54:05.363Z,9.711400
2022-07-28T05:55:05.365Z,9.711393
2022-07-28T05:56:05.342Z,9.711419
2022-07-28T05:57:05.330Z,9.711549
2022-07-28T05:58:05.338Z,9.711632
2022-07-28T05:59:05.321Z,9.711710
2022-07-28T06:00:05.329Z,9.711837
2022-07-28T06:01:05.351Z,9.711732
2022-07-28T06:02:05.367Z,9.711961
2022-07-28T06:03:05.290Z,9.711730
2022-07-28T06:04:26.500Z,9.711681
2022-07-28T06:05:07.263Z,9.711709
2022-07-28T06:06:15.581Z,9.711476
2022-07-28T06:07:06.251Z,9.711660
2022-07-28T06:08:05.247Z,9.711910
2022-07-28T06:09:05.231Z,9.711987
2022-07-28T06:10:05.225Z,9.711699
2022-07-28T06:11:05.220Z,9.711607
2022-07-28T06:12:05.206Z,9.711619
2022-07-28T06:13:05.204Z,9.711614
2022-07-28T06:14:05.185Z,9.711623
2022-07-28T06:15:06.181Z,9.711843
2022-07-28T06:16:07.398Z,9.711707
2022-07-28T06:17:06.240Z,9.711671
2022-07-28T06:18:05.171Z,9.711690
2022-07-28T06:19:05.154Z,9.711764
2022-07-28T06:20:05.141Z,9.712071
2022-07-28T06:21:05.169Z,9.712194
2022-07-28T06:22:05.138Z,9.711978
2022-07-28T06:23:05.123Z,9.712280
2022-07-28T06:24:05.124Z,9.712301
2022-07-28T06:25:05.111Z,9.712345
2022-07-28T06:26:05.102Z,9.712057
2022-07-28T06:27:05.088Z,9.712133
2022-07-28T06:28:05.108Z,9.712255
2022-07-28T06:29:05.089Z,9.712015
2022-07-28T06:30:05.073Z,9.712446
2022-07-28T06:31:05.131Z,9.712246
2022-07-28T06:32:05.149Z,9.711892
2022-07-28T06:33:05.037Z,9.711475
2022-07-28T06:34:05.029Z,9.711595
2022-07-28T06:35:05.026Z,9.711602
2022-07-28T06:36:05.013Z,9.711670
2022-07-28T06:37:05.010Z,9.711607
2022-07-28T06:38:05.013Z,9.711112
2022-07-28T06:39:04.988Z,9.711671
2022-07-28T06:40:04.984Z,9.711928
2022-07-28T06:41:04.978Z,9.712038
2022-07-28T06:42:04.968Z,9.712136
2022-07-28T06:43:04.964Z,9.712183
2022-07-28T06:44:04.953Z,9.711802
2022-07-28T06:45:04.942Z,9.711691
2022-07-28T06:46:04.932Z,9.711671
2022-07-28T06:47:05.020Z,9.711773
2022-07-28T06:48:04.925Z,9.711867
2022-07-28T06:49:04.963Z,9.711797
2022-07-28T06:50:06.813Z,9.711705
2022-07-28T06:51:05.906Z,9.711588
2022-07-28T06:52:04.890Z,9.711489
2022-07-28T06:53:05.227Z,9.711540
2022-07-28T06:54:10.804Z,9.711543
2022-07-28T06:55:06.873Z,9.711817
2022-07-28T06:56:04.862Z,9.711742
2022-07-28T06:57:04.975Z,9.711576
2022-07-28T06:58:04.848Z,9.711499
2022-07-28T06:59:04.829Z,9.711967
2022-07-28T07:00:04.841Z,9.711847
2022-07-28T07:01:04.894Z,9.711610
2022-07-28T07:02:04.798Z,9.711696
2022-07-28T07:03:05.340Z,9.711598
2022-07-28T07:04:04.843Z,9.711564
2022-07-28T07:05:04.814Z,9.711580
2022-07-28T07:06:04.773Z,9.711609
2022-07-28T07:07:04.768Z,9.711578
2022-07-28T07:08:05.756Z,9.711596
2022-07-28T07:09:04.755Z,9.711721
2022-07-28T07:10:04.743Z,9.711872
2022-07-28T07:11:04.741Z,9.711951
2022-07-28T07:12:04.724Z,9.711998
2022-07-28T07:13:04.726Z,9.712032
2022-07-28T07:14:04.708Z,9.711915
2022-07-28T07:15:04.700Z,9.711739
2022-07-28T07:16:04.728Z,9.711655
2022-07-28T07:17:04.697Z,9.711605
2022-07-28T07:18:04.686Z,9.711537
2022-07-28T07:19:05.793Z,9.711554
2022-07-28T07:20:04.658Z,9.711599
2022-07-28T07:21:04.662Z,9.711648
2022-07-28T07:22:04.655Z,9.711641
2022-07-28T07:23:04.649Z,9.711647
2022-07-28T07:24:04.633Z,9.711720
2022-07-28T07:25:04.624Z,9.711657
2022-07-28T07:26:04.622Z,9.711667
2022-07-28T07:27:04.615Z,9.711682
2022-07-28T07:28:04.599Z,9.711602
2022-07-28T07:29:04.605Z,9.711689
2022-07-28T07:30:04.592Z,9.711903
2022-07-28T07:31:04.604Z,9.711728
2022-07-28T07:32:10.096Z,9.711760
2022-07-28T07:33:07.905Z,9.711579
2022-07-28T07:34:04.561Z,9.711459
2022-07-28T07:35:04.552Z,9.711733
2022-07-28T07:36:04.541Z,9.711685
2022-07-28T07:37:04.527Z,9.711802
2022-07-28T07:38:05.399Z,9.711702
2022-07-28T07:39:04.525Z,9.711627
2022-07-28T07:40:04.518Z,9.711833
2022-07-28T07:41:04.523Z,9.711798
2022-07-28T07:42:04.496Z,9.711605
2022-07-28T07:43:04.484Z,9.711601
2022-07-28T07:44:04.516Z,9.711534
2022-07-28T07:45:04.476Z,9.711596
2022-07-28T07:46:04.500Z,9.711583
2022-07-28T07:47:04.570Z,9.711587
2022-07-28T07:48:04.454Z,9.711559
2022-07-28T07:49:04.486Z,9.711596
2022-07-28T07:50:04.789Z,9.711656
2022-07-28T07:51:04.427Z,9.711646
2022-07-28T07:52:04.406Z,9.711508
2022-07-28T07:53:05.417Z,9.711493
2022-07-28T07:54:04.396Z,9.711496
2022-07-28T07:55:04.393Z,9.711536
2022-07-28T07:56:04.385Z,9.711567
2022-07-28T07:57:04.377Z,9.711553
2022-07-28T07:58:04.369Z,9.711638
2022-07-28T07:59:04.379Z,9.711625
2022-07-28T08:00:04.362Z,9.711641
2022-07-28T08:01:04.348Z,9.711694
2022-07-28T08:02:04.429Z,9.711645
2022-07-28T08:03:04.329Z,9.711627
2022-07-28T08:04:05.363Z,9.711651
2022-07-28T08:05:04.387Z,9.711671
2022-07-28T08:06:04.322Z,9.711643
2022-07-28T08:07:04.297Z,9.711646
2022-07-28T08:08:04.291Z,9.711654
2022-07-28T08:09:04.286Z,9.711692
2022-07-28T08:10:04.274Z,9.711672
2022-07-28T08:11:04.278Z,9.711631
2022-07-28T08:12:04.269Z,9.711652
2022-07-28T08:13:04.247Z,9.711707
2022-07-28T08:14:04.264Z,9.711695
2022-07-28T08:15:04.246Z,9.711639
2022-07-28T08:16:04.297Z,9.711645
2022-07-28T08:17:04.228Z,9.711558
2022-07-28T08:18:04.212Z,9.711590
2022-07-28T08:19:04.208Z,9.711626
2022-07-28T08:20:04.192Z,9.711673
2022-07-28T08:21:04.182Z,9.711595
2022-07-28T08:22:04.204Z,9.711658
2022-07-28T08:23:04.182Z,9.711668
2022-07-28T08:24:04.164Z,9.711715
2022-07-28T08:25:04.186Z,9.711729
2022-07-28T08:26:04.148Z,9.711718
2022-07-28T08:27:04.146Z,9.711656
2022-07-28T08:28:04.138Z,9.711715
2022-07-28T08:29:04.126Z,9.711824
2022-07-28T08:30:04.122Z,9.711906
2022-07-28T08:31:04.186Z,9.711633
2022-07-28T08:32:04.121Z,9.711609
2022-07-28T08:33:04.104Z,9.711572
2022-07-28T08:34:04.080Z,9.711680
2022-07-28T08:35:31.602Z,9.711650
2022-07-28T08:36:06.064Z,9.711629
2022-07-28T08:37:04.073Z,9.711637
2022-07-28T08:38:04.052Z,9.711570
2022-07-28T08:39:04.039Z,9.711524
2022-07-28T08:40:04.030Z,9.711463
2022-07-28T08:41:04.026Z,9.711370
2022-07-28T08:42:04.019Z,9.711398
2022-07-28T08:43:04.015Z,9.711602
2022-07-28T08:44:04.006Z,9.711473
2022-07-28T08:45:04.005Z,9.711538
2022-07-28T08:46:04.017Z,9.711759
2022-07-28T08:47:05.019Z,9.711858
2022-07-28T08:48:08.702Z,9.711855
2022-07-28T08:49:05.998Z,9.711584
2022-07-28T08:50:04.849Z,9.711607
2022-07-28T08:51:03.947Z,9.711600
2022-07-28T08:52:03.943Z,9.711736
2022-07-28T08:53:03.946Z,9.711562
2022-07-28T08:54:03.932Z,9.711457
2022-07-28T08:55:03.921Z,9.711473
2022-07-28T08:56:03.911Z,9.711456
2022-07-28T08:57:03.923Z,9.711607
2022-07-28T08:58:03.895Z,9.711705
2022-07-28T08:59:03.882Z,9.711614
2022-07-28T09:00:03.872Z,9.711623
2022-07-28T09:01:03.875Z,9.711627
2022-07-28T09:02:03.908Z,9.711553
2022-07-28T09:03:03.945Z,9.711706
2022-07-28T09:04:03.858Z,9.711706
2022-07-28T09:05:03.837Z,9.711888
2022-07-28T09:06:03.839Z,9.712049
2022-07-28T09:07:03.843Z,9.712080
2022-07-28T09:08:03.830Z,9.711861
2022-07-28T09:09:03.806Z,9.711634
2022-07-28T09:10:03.795Z,9.711560
2022-07-28T09:11:03.796Z,9.711634
2022-07-28T09:12:03.795Z,9.711653
2022-07-28T09:13:03.789Z,9.711570
2022-07-28T09:14:03.770Z,9.711584
2022-07-28T09:15:03.771Z,9.711565
2022-07-28T09:16:03.842Z,9.711620
2022-07-28T09:17:05.452Z,9.711711
2022-07-28T09:18:03.744Z,9.711652
2022-07-28T09:19:03.726Z,9.711613
2022-07-28T09:20:08.859Z,9.711587
2022-07-28T09:21:05.729Z,9.711581
2022-07-28T09:22:03.707Z,9.711547
2022-07-28T09:23:03.708Z,9.711551
2022-07-28T09:24:03.696Z,9.711585
2022-07-28T09:25:03.685Z,9.711607
2022-07-28T09:26:09.958Z,9.711600
2022-07-28T09:27:05.665Z,9.711611
2022-07-28T09:28:03.670Z,9.711578
2022-07-28T09:29:03.656Z,9.711580
2022-07-28T09:30:03.642Z,9.711579
2022-07-28T09:31:03.689Z,9.711542
2022-07-28T09:32:03.661Z,9.711647
2022-07-28T09:33:03.623Z,9.711652
2022-07-28T09:34:03.629Z,9.711682
2022-07-28T09:35:03.634Z,9.711646
2022-07-28T09:36:03.617Z,9.711620
2022-07-28T09:37:03.591Z,9.711665
2022-07-28T09:38:03.606Z,9.711714
2022-07-28T09:39:03.571Z,9.711735
2022-07-28T09:40:04.119Z,9.711917
2022-07-28T09:41:04.566Z,9.711896
2022-07-28T09:42:04.419Z,9.711811
2022-07-28T09:43:03.553Z,9.711908
2022-07-28T09:44:03.543Z,9.711908
2022-07-28T09:45:21.743Z,9.712029
2022-07-28T09:46:05.663Z,9.711754
2022-07-28T09:47:04.533Z,9.712034
2022-07-28T09:48:03.738Z,9.712151
2022-07-28T09:49:03.696Z,9.712179
2022-07-28T09:50:03.568Z,9.712081
2022-07-28T09:51:03.481Z,9.712369
2022-07-28T09:52:03.497Z,9.712313
2022-07-28T09:53:03.461Z,9.711905
2022-07-28T09:54:03.451Z,9.711835
2022-07-28T09:55:03.454Z,9.711875
2022-07-28T09:56:03.433Z,9.711717
2022-07-28T09:57:04.432Z,9.711651
2022-07-28T09:58:04.383Z,9.711767
2022-07-28T09:59:03.424Z,9.711809
2022-07-28T10:00:03.407Z,9.711779
2022-07-28T10:01:03.405Z,9.711667
2022-07-28T10:02:03.437Z,9.711732
2022-07-28T10:03:03.478Z,9.711730
2022-07-28T10:04:03.375Z,9.711713
2022-07-28T10:05:03.372Z,9.711885
2022-07-28T10:06:03.358Z,9.711787
2022-07-28T10:07:03.348Z,9.711816
2022-07-28T10:08:03.399Z,9.711655
2022-07-28T10:09:03.336Z,9.711645
2022-07-28T10:10:03.331Z,9.711591
2022-07-28T10:11:03.321Z,9.711580
2022-07-28T10:12:03.318Z,9.711596
2022-07-28T10:13:03.317Z,9.711559
2022-07-28T10:14:03.310Z,9.711570
2022-07-28T10:15:03.294Z,9.711637
2022-07-28T10:16:03.355Z,9.711655
2022-07-28T10:17:06.235Z,9.711658
2022-07-28T10:18:04.273Z,9.711734
2022-07-28T10:19:03.268Z,9.711713
2022-07-28T10:20:03.243Z,9.711701
2022-07-28T10:21:03.244Z,9.711658
2022-07-28T10:22:03.244Z,9.711707
2022-07-28T10:23:03.226Z,9.711753
2022-07-28T10:24:03.218Z,9.712056
2022-07-28T10:25:03.216Z,9.711800
2022-07-28T10:26:03.215Z,9.711682
2022-07-28T10:27:04.184Z,9.711561
2022-07-28T10:28:03.179Z,9.711538
2022-07-28T10:29:03.179Z,9.711699
2022-07-28T10:30:03.163Z,9.711725
2022-07-28T10:31:03.246Z,9.711759
2022-07-28T10:32:03.150Z,9.711619
2022-07-28T10:33:03.157Z,9.711781
2022-07-28T10:34:03.157Z,9.711761
2022-07-28T10:35:03.132Z,9.711601
2022-07-28T10:36:03.121Z,9.711626
2022-07-28T10:37:03.107Z,9.711679
2022-07-28T10:38:03.099Z,9.711710
2022-07-28T10:39:03.123Z,9.711696
2022-07-28T10:40:07.839Z,9.711637
2022-07-28T10:41:05.076Z,9.711782
2022-07-28T10:42:03.068Z,9.711762
2022-07-28T10:43:03.058Z,9.711708
2022-07-28T10:44:03.063Z,9.711725
2022-07-28T10:45:03.045Z,9.711790
2022-07-28T10:46:06.092Z,9.711841
2022-07-28T10:47:04.064Z,9.711653
2022-07-28T10:48:03.013Z,9.711715
2022-07-28T10:49:03.521Z,9.711737
2022-07-28T10:50:03.041Z,9.711740
2022-07-28T10:51:03.016Z,9.711713
2022-07-28T10:52:08.754Z,9.711735
2022-07-28T10:53:04.020Z,9.711711
2022-07-28T10:54:02.989Z,9.711738
2022-07-28T10:55:02.973Z,9.711729
2022-07-28T10:56:02.956Z,9.711766
2022-07-28T10:57:04.769Z,9.711756
2022-07-28T10:58:05.143Z,9.711689
2022-07-28T10:59:05.048Z,9.711704
2022-07-28T11:00:12.792Z,9.711698
2022-07-28T11:01:06.243Z,9.711632
2022-07-28T11:02:04.046Z,9.711663
2022-07-28T11:03:11.746Z,9.711666
2022-07-28T11:04:03.898Z,9.711702
2022-07-28T11:05:02.889Z,9.711673
2022-07-28T11:06:02.891Z,9.711722
2022-07-28T11:07:02.871Z,9.711707
2022-07-28T11:08:02.862Z,9.711733
2022-07-28T11:09:02.850Z,9.711770
2022-07-28T11:10:02.849Z,9.711815
2022-07-28T11:11:07.767Z,9.711818
2022-07-28T11:12:03.835Z,9.711773
2022-07-28T11:13:04.118Z,9.711823
2022-07-28T11:14:02.816Z,9.711782
2022-07-28T11:15:18.243Z,9.711793
2022-07-28T11:16:03.791Z,9.711823
2022-07-28T11:17:02.815Z,9.711846
2022-07-28T11:18:02.784Z,9.711675
2022-07-28T11:19:04.814Z,9.711755
2022-07-28T11:21:04.763Z,9.711751
2022-07-28T11:22:02.752Z,9.711727
2022-07-28T11:23:02.743Z,9.711693
2022-07-28T11:24:02.731Z,9.711738
2022-07-28T11:25:20.979Z,9.711779
2022-07-28T11:26:03.716Z,9.711701
2022-07-28T11:27:04.230Z,9.711600
2022-07-28T11:28:03.693Z,9.711721
2022-07-28T11:29:02.685Z,9.711731
2022-07-28T11:30:02.695Z,9.711674
2022-07-28T11:31:02.746Z,9.711652
2022-07-28T11:32:02.683Z,9.711668
2022-07-28T11:33:02.660Z,9.711607
2022-07-28T11:34:02.668Z,9.711656
2022-07-28T11:35:02.642Z,9.711736
2022-07-28T11:36:02.638Z,9.711757
2022-07-28T11:37:02.645Z,9.711908
2022-07-28T11:38:02.721Z,9.711930
2022-07-28T11:39:02.638Z,9.711905
2022-07-28T11:40:02.605Z,9.711892
2022-07-28T11:41:02.604Z,9.711916
2022-07-28T11:42:02.632Z,9.711846
2022-07-28T11:43:02.578Z,9.711866
2022-07-28T11:44:02.573Z,9.711762
2022-07-28T11:45:02.560Z,9.711663
2022-07-28T11:46:02.671Z,9.711761
2022-07-28T11:47:02.545Z,9.711769
2022-07-28T11:48:02.537Z,9.711673
2022-07-28T11:49:02.561Z,9.711618
2022-07-28T11:50:02.528Z,9.711742
2022-07-28T11:51:02.521Z,9.711736
2022-07-28T11:52:02.512Z,9.711682
2022-07-28T11:53:02.503Z,9.711623
2022-07-28T11:54:02.493Z,9.711604